sensor_id;sensor_type;location;lat;lon;timestamp;P1;durP1;ratioP1;P2;durP2;ratioP2
20639;SDS011;10479;53.524;9.846;2023-05-07T00:00:04;21.67;;;12.43;;
20639;SDS011;10479;53.524;9.846;2023-05-07T00:02:33;24.05;;;13.00;;
20639;SDS011;10479;53.524;9.846;2023-05-07T00:04:59;22.05;;;12.38;;
20639;SDS011;10479;53.524;9.846;2023-05-07T00:07:25;24.02;;;13.07;;
20639;SDS011;10479;53.524;9.846;2023-05-07T00:09:50;23.25;;;11.93;;
20639;SDS011;10479;53.524;9.846;2023-05-07T00:12:16;20.45;;;11.38;;
20639;SDS011;10479;53.524;9.846;2023-05-07T00:14:41;22.88;;;12.13;;
20639;SDS011;10479;53.524;9.846;2023-05-07T00:17:07;23.40;;;12.32;;
20639;SDS011;10479;53.524;9.846;2023-05-07T00:19:32;23.88;;;12.07;;
20639;SDS011;10479;53.524;9.846;2023-05-07T00:21:57;22.33;;;12.15;;
20639;SDS011;10479;53.524;9.846;2023-05-07T00:24:23;24.17;;;12.40;;
20639;SDS011;10479;53.524;9.846;2023-05-07T00:26:49;24.15;;;13.18;;
20639;SDS011;10479;53.524;9.846;2023-05-07T00:29:15;19.90;;;11.55;;
20639;SDS011;10479;53.524;9.846;2023-05-07T00:31:40;20.90;;;11.25;;
20639;SDS011;10479;53.524;9.846;2023-05-07T00:34:06;23.00;;;12.35;;
20639;SDS011;10479;53.524;9.846;2023-05-07T00:36:31;19.15;;;10.68;;
20639;SDS011;10479;53.524;9.846;2023-05-07T00:38:59;20.90;;;12.30;;
20639;SDS011;10479;53.524;9.846;2023-05-07T00:41:25;23.25;;;13.20;;
20639;SDS011;10479;53.524;9.846;2023-05-07T00:43:51;21.63;;;13.02;;
20639;SDS011;10479;53.524;9.846;2023-05-07T00:46:17;20.77;;;12.18;;
20639;SDS011;10479;53.524;9.846;2023-05-07T00:48:43;22.08;;;13.00;;
20639;SDS011;10479;53.524;9.846;2023-05-07T00:51:09;23.73;;;12.57;;
20639;SDS011;10479;53.524;9.846;2023-05-07T00:53:36;23.00;;;11.57;;
20639;SDS011;10479;53.524;9.846;2023-05-07T00:56:01;20.00;;;10.95;;
20639;SDS011;10479;53.524;9.846;2023-05-07T00:58:27;19.08;;;10.77;;
20639;SDS011;10479;53.524;9.846;2023-05-07T01:00:52;18.60;;;10.77;;
20639;SDS011;10479;53.524;9.846;2023-05-07T01:03:18;19.30;;;10.15;;
20639;SDS011;10479;53.524;9.846;2023-05-07T01:05:44;17.02;;;10.15;;
20639;SDS011;10479;53.524;9.846;2023-05-07T01:08:10;17.95;;;10.10;;
20639;SDS011;10479;53.524;9.846;2023-05-07T01:10:35;17.90;;;10.82;;
20639;SDS011;10479;53.524;9.846;2023-05-07T01:13:01;17.75;;;9.95;;
20639;SDS011;10479;53.524;9.846;2023-05-07T01:15:27;18.38;;;9.88;;
20639;SDS011;10479;53.524;9.846;2023-05-07T01:17:52;15.02;;;9.50;;
20639;SDS011;10479;53.524;9.846;2023-05-07T01:20:18;17.77;;;10.68;;
20639;SDS011;10479;53.524;9.846;2023-05-07T01:22:44;15.25;;;9.65;;
20639;SDS011;10479;53.524;9.846;2023-05-07T01:25:10;15.00;;;8.82;;
20639;SDS011;10479;53.524;9.846;2023-05-07T01:27:35;15.80;;;8.85;;
20639;SDS011;10479;53.524;9.846;2023-05-07T01:30:05;14.93;;;9.52;;
20639;SDS011;10479;53.524;9.846;2023-05-07T01:35:09;14.40;;;8.43;;
20639;SDS011;10479;53.524;9.846;2023-05-07T01:37:36;19.17;;;9.43;;
20639;SDS011;10479;53.524;9.846;2023-05-07T01:40:03;17.50;;;9.10;;
20639;SDS011;10479;53.524;9.846;2023-05-07T01:42:29;16.05;;;8.63;;
20639;SDS011;10479;53.524;9.846;2023-05-07T01:44:55;14.85;;;8.88;;
20639;SDS011;10479;53.524;9.846;2023-05-07T01:47:21;12.65;;;8.30;;
20639;SDS011;10479;53.524;9.846;2023-05-07T01:49:46;14.43;;;8.32;;
20639;SDS011;10479;53.524;9.846;2023-05-07T01:52:12;16.83;;;8.75;;
20639;SDS011;10479;53.524;9.846;2023-05-07T01:54:37;13.65;;;7.88;;
20639;SDS011;10479;53.524;9.846;2023-05-07T01:57:03;14.80;;;7.88;;
20639;SDS011;10479;53.524;9.846;2023-05-07T01:59:28;12.55;;;7.28;;
20639;SDS011;10479;53.524;9.846;2023-05-07T02:01:54;13.45;;;8.30;;
20639;SDS011;10479;53.524;9.846;2023-05-07T02:04:19;12.45;;;7.43;;
20639;SDS011;10479;53.524;9.846;2023-05-07T02:06:45;13.55;;;7.60;;
20639;SDS011;10479;53.524;9.846;2023-05-07T02:09:11;11.52;;;7.72;;
20639;SDS011;10479;53.524;9.846;2023-05-07T02:11:36;13.85;;;7.47;;
20639;SDS011;10479;53.524;9.846;2023-05-07T02:14:02;13.77;;;8.15;;
20639;SDS011;10479;53.524;9.846;2023-05-07T02:16:27;13.25;;;8.20;;
20639;SDS011;10479;53.524;9.846;2023-05-07T02:18:53;13.20;;;7.25;;
20639;SDS011;10479;53.524;9.846;2023-05-07T02:21:18;14.07;;;8.70;;
20639;SDS011;10479;53.524;9.846;2023-05-07T02:23:44;13.07;;;7.90;;
20639;SDS011;10479;53.524;9.846;2023-05-07T02:26:10;12.45;;;7.43;;
20639;SDS011;10479;53.524;9.846;2023-05-07T02:28:36;12.38;;;8.00;;
20639;SDS011;10479;53.524;9.846;2023-05-07T02:31:04;13.85;;;8.07;;
20639;SDS011;10479;53.524;9.846;2023-05-07T02:33:30;14.07;;;8.10;;
20639;SDS011;10479;53.524;9.846;2023-05-07T02:35:55;13.55;;;7.55;;
20639;SDS011;10479;53.524;9.846;2023-05-07T02:38:21;13.65;;;8.45;;
20639;SDS011;10479;53.524;9.846;2023-05-07T02:40:47;14.07;;;8.35;;
20639;SDS011;10479;53.524;9.846;2023-05-07T02:43:12;15.55;;;9.30;;
20639;SDS011;10479;53.524;9.846;2023-05-07T02:45:38;14.75;;;8.95;;
20639;SDS011;10479;53.524;9.846;2023-05-07T02:48:04;15.25;;;8.85;;
20639;SDS011;10479;53.524;9.846;2023-05-07T02:50:30;17.75;;;9.48;;
20639;SDS011;10479;53.524;9.846;2023-05-07T02:52:57;15.95;;;8.85;;
20639;SDS011;10479;53.524;9.846;2023-05-07T02:55:23;13.23;;;8.75;;
20639;SDS011;10479;53.524;9.846;2023-05-07T02:57:49;14.63;;;9.10;;
20639;SDS011;10479;53.524;9.846;2023-05-07T03:00:15;14.65;;;8.82;;
20639;SDS011;10479;53.524;9.846;2023-05-07T03:02:44;15.40;;;8.88;;
20639;SDS011;10479;53.524;9.846;2023-05-07T03:05:10;15.02;;;8.55;;
20639;SDS011;10479;53.524;9.846;2023-05-07T03:07:37;18.52;;;8.48;;
20639;SDS011;10479;53.524;9.846;2023-05-07T03:10:03;17.13;;;9.55;;
20639;SDS011;10479;53.524;9.846;2023-05-07T03:12:29;15.05;;;9.07;;
20639;SDS011;10479;53.524;9.846;2023-05-07T03:14:54;19.92;;;10.27;;
20639;SDS011;10479;53.524;9.846;2023-05-07T03:17:20;17.90;;;10.40;;
20639;SDS011;10479;53.524;9.846;2023-05-07T03:19:45;16.88;;;9.77;;
20639;SDS011;10479;53.524;9.846;2023-05-07T03:22:11;24.77;;;14.30;;
20639;SDS011;10479;53.524;9.846;2023-05-07T03:24:36;23.60;;;12.73;;
20639;SDS011;10479;53.524;9.846;2023-05-07T03:27:02;22.17;;;12.93;;
20639;SDS011;10479;53.524;9.846;2023-05-07T03:29:27;20.02;;;10.60;;
20639;SDS011;10479;53.524;9.846;2023-05-07T03:31:52;23.38;;;12.15;;
20639;SDS011;10479;53.524;9.846;2023-05-07T03:34:18;16.48;;;9.98;;
20639;SDS011;10479;53.524;9.846;2023-05-07T03:36:47;17.10;;;9.52;;
20639;SDS011;10479;53.524;9.846;2023-05-07T03:39:13;16.60;;;9.30;;
20639;SDS011;10479;53.524;9.846;2023-05-07T03:41:39;17.27;;;9.50;;
20639;SDS011;10479;53.524;9.846;2023-05-07T03:44:05;18.42;;;9.93;;
20639;SDS011;10479;53.524;9.846;2023-05-07T03:46:31;16.10;;;8.82;;
20639;SDS011;10479;53.524;9.846;2023-05-07T03:48:57;14.70;;;8.98;;
20639;SDS011;10479;53.524;9.846;2023-05-07T03:51:23;15.20;;;8.77;;
20639;SDS011;10479;53.524;9.846;2023-05-07T03:53:48;16.50;;;9.93;;
20639;SDS011;10479;53.524;9.846;2023-05-07T03:56:14;15.25;;;8.98;;
20639;SDS011;10479;53.524;9.846;2023-05-07T03:58:39;15.80;;;9.65;;
20639;SDS011;10479;53.524;9.846;2023-05-07T04:01:05;15.75;;;9.55;;
20639;SDS011;10479;53.524;9.846;2023-05-07T04:03:30;17.42;;;10.57;;
20639;SDS011;10479;53.524;9.846;2023-05-07T04:05:56;16.88;;;9.77;;
20639;SDS011;10479;53.524;9.846;2023-05-07T04:08:21;15.60;;;9.48;;
20639;SDS011;10479;53.524;9.846;2023-05-07T04:10:47;16.58;;;10.23;;
20639;SDS011;10479;53.524;9.846;2023-05-07T04:13:12;15.25;;;9.40;;
20639;SDS011;10479;53.524;9.846;2023-05-07T04:15:38;16.35;;;9.98;;
20639;SDS011;10479;53.524;9.846;2023-05-07T04:18:04;16.15;;;9.23;;
20639;SDS011;10479;53.524;9.846;2023-05-07T04:20:30;15.52;;;10.02;;
20639;SDS011;10479;53.524;9.846;2023-05-07T04:22:55;16.80;;;10.18;;
20639;SDS011;10479;53.524;9.846;2023-05-07T04:25:21;19.90;;;10.63;;
20639;SDS011;10479;53.524;9.846;2023-05-07T04:27:46;19.77;;;11.45;;
20639;SDS011;10479;53.524;9.846;2023-05-07T04:30:13;15.95;;;9.63;;
20639;SDS011;10479;53.524;9.846;2023-05-07T04:32:39;17.75;;;10.32;;
20639;SDS011;10479;53.524;9.846;2023-05-07T04:35:04;15.52;;;9.13;;
20639;SDS011;10479;53.524;9.846;2023-05-07T04:37:34;17.55;;;10.48;;
20639;SDS011;10479;53.524;9.846;2023-05-07T04:40:00;16.92;;;9.25;;
20639;SDS011;10479;53.524;9.846;2023-05-07T04:42:25;15.55;;;9.13;;
20639;SDS011;10479;53.524;9.846;2023-05-07T04:44:54;16.40;;;9.40;;
20639;SDS011;10479;53.524;9.846;2023-05-07T04:47:20;16.67;;;9.88;;
20639;SDS011;10479;53.524;9.846;2023-05-07T04:49:46;16.88;;;9.60;;
20639;SDS011;10479;53.524;9.846;2023-05-07T04:52:11;15.77;;;9.25;;
20639;SDS011;10479;53.524;9.846;2023-05-07T04:54:37;16.35;;;8.98;;
20639;SDS011;10479;53.524;9.846;2023-05-07T04:57:05;16.98;;;9.23;;
20639;SDS011;10479;53.524;9.846;2023-05-07T04:59:31;17.85;;;9.77;;
20639;SDS011;10479;53.524;9.846;2023-05-07T05:01:57;13.40;;;8.55;;
20639;SDS011;10479;53.524;9.846;2023-05-07T05:04:22;14.20;;;8.77;;
20639;SDS011;10479;53.524;9.846;2023-05-07T05:06:48;15.68;;;9.63;;
20639;SDS011;10479;53.524;9.846;2023-05-07T05:09:13;15.90;;;9.55;;
20639;SDS011;10479;53.524;9.846;2023-05-07T05:11:40;16.35;;;9.75;;
20639;SDS011;10479;53.524;9.846;2023-05-07T05:14:05;14.20;;;8.75;;
20639;SDS011;10479;53.524;9.846;2023-05-07T05:16:31;16.08;;;10.02;;
20639;SDS011;10479;53.524;9.846;2023-05-07T05:18:56;17.05;;;9.55;;
20639;SDS011;10479;53.524;9.846;2023-05-07T05:21:22;17.17;;;9.52;;
20639;SDS011;10479;53.524;9.846;2023-05-07T05:23:47;15.52;;;9.18;;
20639;SDS011;10479;53.524;9.846;2023-05-07T05:26:12;17.60;;;9.77;;
20639;SDS011;10479;53.524;9.846;2023-05-07T05:28:38;15.52;;;9.20;;
20639;SDS011;10479;53.524;9.846;2023-05-07T05:31:04;19.85;;;10.00;;
20639;SDS011;10479;53.524;9.846;2023-05-07T05:33:30;16.20;;;9.52;;
20639;SDS011;10479;53.524;9.846;2023-05-07T05:35:55;16.20;;;9.80;;
20639;SDS011;10479;53.524;9.846;2023-05-07T05:38:21;16.63;;;9.63;;
20639;SDS011;10479;53.524;9.846;2023-05-07T05:40:46;15.00;;;9.05;;
20639;SDS011;10479;53.524;9.846;2023-05-07T05:43:13;15.48;;;8.95;;
20639;SDS011;10479;53.524;9.846;2023-05-07T05:45:38;16.55;;;9.52;;
20639;SDS011;10479;53.524;9.846;2023-05-07T05:48:04;14.27;;;9.20;;
20639;SDS011;10479;53.524;9.846;2023-05-07T05:50:29;17.05;;;9.45;;
20639;SDS011;10479;53.524;9.846;2023-05-07T05:52:55;15.02;;;9.23;;
20639;SDS011;10479;53.524;9.846;2023-05-07T05:55:21;15.50;;;9.10;;
20639;SDS011;10479;53.524;9.846;2023-05-07T05:57:47;16.90;;;9.50;;
20639;SDS011;10479;53.524;9.846;2023-05-07T06:00:13;14.77;;;8.45;;
20639;SDS011;10479;53.524;9.846;2023-05-07T06:02:38;14.65;;;9.02;;
20639;SDS011;10479;53.524;9.846;2023-05-07T06:05:04;15.13;;;9.27;;
20639;SDS011;10479;53.524;9.846;2023-05-07T06:07:30;15.95;;;9.25;;
20639;SDS011;10479;53.524;9.846;2023-05-07T06:09:55;17.90;;;10.00;;
20639;SDS011;10479;53.524;9.846;2023-05-07T06:12:21;17.90;;;10.10;;
20639;SDS011;10479;53.524;9.846;2023-05-07T06:14:46;15.27;;;9.02;;
20639;SDS011;10479;53.524;9.846;2023-05-07T06:17:12;18.90;;;10.27;;
20639;SDS011;10479;53.524;9.846;2023-05-07T06:19:37;17.67;;;10.45;;
20639;SDS011;10479;53.524;9.846;2023-05-07T06:22:03;19.40;;;9.80;;
20639;SDS011;10479;53.524;9.846;2023-05-07T06:24:28;18.38;;;9.43;;
20639;SDS011;10479;53.524;9.846;2023-05-07T06:26:54;18.63;;;10.38;;
20639;SDS011;10479;53.524;9.846;2023-05-07T06:29:19;16.73;;;8.80;;
20639;SDS011;10479;53.524;9.846;2023-05-07T06:31:45;16.33;;;9.35;;
20639;SDS011;10479;53.524;9.846;2023-05-07T06:34:10;16.92;;;8.77;;
20639;SDS011;10479;53.524;9.846;2023-05-07T06:36:39;14.70;;;8.90;;
20639;SDS011;10479;53.524;9.846;2023-05-07T06:39:05;18.48;;;9.13;;
20639;SDS011;10479;53.524;9.846;2023-05-07T06:41:31;15.07;;;8.82;;
20639;SDS011;10479;53.524;9.846;2023-05-07T06:43:56;14.43;;;8.48;;
20639;SDS011;10479;53.524;9.846;2023-05-07T06:46:22;16.52;;;9.82;;
20639;SDS011;10479;53.524;9.846;2023-05-07T06:48:47;13.80;;;8.27;;
20639;SDS011;10479;53.524;9.846;2023-05-07T06:51:13;16.90;;;9.10;;
20639;SDS011;10479;53.524;9.846;2023-05-07T06:53:38;14.93;;;8.40;;
20639;SDS011;10479;53.524;9.846;2023-05-07T06:56:04;16.35;;;9.52;;
20639;SDS011;10479;53.524;9.846;2023-05-07T06:58:29;17.15;;;9.07;;
20639;SDS011;10479;53.524;9.846;2023-05-07T07:00:55;16.13;;;9.18;;
20639;SDS011;10479;53.524;9.846;2023-05-07T07:03:20;14.13;;;9.77;;
20639;SDS011;10479;53.524;9.846;2023-05-07T07:05:46;14.93;;;8.85;;
20639;SDS011;10479;53.524;9.846;2023-05-07T07:08:11;14.38;;;8.48;;
20639;SDS011;10479;53.524;9.846;2023-05-07T07:10:37;15.73;;;8.27;;
20639;SDS011;10479;53.524;9.846;2023-05-07T07:13:04;15.07;;;8.35;;
20639;SDS011;10479;53.524;9.846;2023-05-07T07:15:29;14.10;;;9.05;;
20639;SDS011;10479;53.524;9.846;2023-05-07T07:17:55;17.70;;;9.07;;
20639;SDS011;10479;53.524;9.846;2023-05-07T07:20:20;15.13;;;8.77;;
20639;SDS011;10479;53.524;9.846;2023-05-07T07:22:46;13.98;;;8.63;;
20639;SDS011;10479;53.524;9.846;2023-05-07T07:25:11;14.07;;;8.10;;
20639;SDS011;10479;53.524;9.846;2023-05-07T07:27:37;14.05;;;8.30;;
20639;SDS011;10479;53.524;9.846;2023-05-07T07:30:03;13.57;;;8.07;;
20639;SDS011;10479;53.524;9.846;2023-05-07T07:32:29;13.98;;;7.78;;
20639;SDS011;10479;53.524;9.846;2023-05-07T07:34:54;13.23;;;8.30;;
20639;SDS011;10479;53.524;9.846;2023-05-07T07:37:19;13.80;;;7.63;;
20639;SDS011;10479;53.524;9.846;2023-05-07T07:39:45;17.27;;;7.80;;
20639;SDS011;10479;53.524;9.846;2023-05-07T07:42:10;14.52;;;7.80;;
20639;SDS011;10479;53.524;9.846;2023-05-07T07:44:36;14.18;;;7.50;;
20639;SDS011;10479;53.524;9.846;2023-05-07T07:47:01;11.80;;;6.85;;
20639;SDS011;10479;53.524;9.846;2023-05-07T07:49:26;12.80;;;6.93;;
20639;SDS011;10479;53.524;9.846;2023-05-07T07:51:52;12.68;;;7.00;;
20639;SDS011;10479;53.524;9.846;2023-05-07T07:54:17;12.98;;;6.97;;
20639;SDS011;10479;53.524;9.846;2023-05-07T07:56:43;12.35;;;6.57;;
20639;SDS011;10479;53.524;9.846;2023-05-07T07:59:08;12.88;;;6.38;;
20639;SDS011;10479;53.524;9.846;2023-05-07T08:01:34;12.20;;;6.28;;
20639;SDS011;10479;53.524;9.846;2023-05-07T08:03:59;10.60;;;6.78;;
20639;SDS011;10479;53.524;9.846;2023-05-07T08:06:25;12.48;;;6.07;;
20639;SDS011;10479;53.524;9.846;2023-05-07T08:08:51;15.35;;;6.78;;
20639;SDS011;10479;53.524;9.846;2023-05-07T08:11:17;10.52;;;6.47;;
20639;SDS011;10479;53.524;9.846;2023-05-07T08:13:43;11.32;;;5.93;;
20639;SDS011;10479;53.524;9.846;2023-05-07T08:16:08;12.18;;;6.68;;
20639;SDS011;10479;53.524;9.846;2023-05-07T08:18:34;12.18;;;7.45;;
20639;SDS011;10479;53.524;9.846;2023-05-07T08:21:00;16.75;;;7.00;;
20639;SDS011;10479;53.524;9.846;2023-05-07T08:23:26;12.93;;;6.80;;
20639;SDS011;10479;53.524;9.846;2023-05-07T08:25:51;11.52;;;6.80;;
20639;SDS011;10479;53.524;9.846;2023-05-07T08:28:17;11.50;;;6.38;;
20639;SDS011;10479;53.524;9.846;2023-05-07T08:30:42;11.05;;;6.40;;
20639;SDS011;10479;53.524;9.846;2023-05-07T08:33:11;11.98;;;7.25;;
20639;SDS011;10479;53.524;9.846;2023-05-07T08:35:36;11.07;;;6.50;;
20639;SDS011;10479;53.524;9.846;2023-05-07T08:38:02;11.25;;;6.35;;
20639;SDS011;10479;53.524;9.846;2023-05-07T08:40:27;13.40;;;6.93;;
20639;SDS011;10479;53.524;9.846;2023-05-07T08:42:53;11.00;;;5.80;;
20639;SDS011;10479;53.524;9.846;2023-05-07T08:45:20;12.63;;;6.13;;
20639;SDS011;10479;53.524;9.846;2023-05-07T08:47:53;9.80;;;6.20;;
20639;SDS011;10479;53.524;9.846;2023-05-07T08:50:21;8.93;;;5.32;;
20639;SDS011;10479;53.524;9.846;2023-05-07T08:52:47;10.40;;;5.80;;
20639;SDS011;10479;53.524;9.846;2023-05-07T08:55:13;9.55;;;5.93;;
20639;SDS011;10479;53.524;9.846;2023-05-07T08:57:38;10.48;;;6.20;;
20639;SDS011;10479;53.524;9.846;2023-05-07T09:00:04;12.10;;;6.43;;
20639;SDS011;10479;53.524;9.846;2023-05-07T09:02:32;11.07;;;5.97;;
20639;SDS011;10479;53.524;9.846;2023-05-07T09:04:58;10.70;;;6.25;;
20639;SDS011;10479;53.524;9.846;2023-05-07T09:07:24;11.63;;;5.82;;
20639;SDS011;10479;53.524;9.846;2023-05-07T09:09:51;9.10;;;5.82;;
20639;SDS011;10479;53.524;9.846;2023-05-07T09:12:17;9.43;;;5.50;;
20639;SDS011;10479;53.524;9.846;2023-05-07T09:14:43;8.98;;;6.05;;
20639;SDS011;10479;53.524;9.846;2023-05-07T09:17:09;12.35;;;6.10;;
20639;SDS011;10479;53.524;9.846;2023-05-07T09:19:34;11.57;;;6.57;;
20639;SDS011;10479;53.524;9.846;2023-05-07T09:22:00;12.15;;;6.20;;
20639;SDS011;10479;53.524;9.846;2023-05-07T09:24:26;10.65;;;6.57;;
20639;SDS011;10479;53.524;9.846;2023-05-07T09:26:53;13.07;;;6.63;;
20639;SDS011;10479;53.524;9.846;2023-05-07T09:29:20;11.40;;;6.30;;
20639;SDS011;10479;53.524;9.846;2023-05-07T09:31:45;11.15;;;6.30;;
20639;SDS011;10479;53.524;9.846;2023-05-07T09:34:11;11.32;;;5.93;;
20639;SDS011;10479;53.524;9.846;2023-05-07T09:36:36;12.80;;;6.22;;
20639;SDS011;10479;53.524;9.846;2023-05-07T09:39:02;12.45;;;6.50;;
20639;SDS011;10479;53.524;9.846;2023-05-07T09:41:27;13.05;;;6.68;;
20639;SDS011;10479;53.524;9.846;2023-05-07T09:43:55;12.77;;;6.72;;
20639;SDS011;10479;53.524;9.846;2023-05-07T09:46:23;11.98;;;6.38;;
20639;SDS011;10479;53.524;9.846;2023-05-07T09:48:50;10.82;;;6.55;;
20639;SDS011;10479;53.524;9.846;2023-05-07T09:51:22;9.35;;;6.03;;
20639;SDS011;10479;53.524;9.846;2023-05-07T09:53:52;10.45;;;6.93;;
20639;SDS011;10479;53.524;9.846;2023-05-07T09:56:18;12.25;;;7.03;;
20639;SDS011;10479;53.524;9.846;2023-05-07T09:58:45;12.07;;;6.32;;
20639;SDS011;10479;53.524;9.846;2023-05-07T10:01:11;10.30;;;6.50;;
20639;SDS011;10479;53.524;9.846;2023-05-07T10:03:37;12.57;;;6.93;;
20639;SDS011;10479;53.524;9.846;2023-05-07T10:06:05;13.13;;;7.18;;
20639;SDS011;10479;53.524;9.846;2023-05-07T10:08:30;12.77;;;6.57;;
20639;SDS011;10479;53.524;9.846;2023-05-07T10:10:56;9.57;;;6.20;;
20639;SDS011;10479;53.524;9.846;2023-05-07T10:13:22;10.27;;;6.47;;
20639;SDS011;10479;53.524;9.846;2023-05-07T10:15:47;10.38;;;6.20;;
20639;SDS011;10479;53.524;9.846;2023-05-07T10:18:13;11.20;;;6.60;;
20639;SDS011;10479;53.524;9.846;2023-05-07T10:20:38;10.55;;;5.97;;
20639;SDS011;10479;53.524;9.846;2023-05-07T10:23:04;9.25;;;5.88;;
20639;SDS011;10479;53.524;9.846;2023-05-07T10:25:31;10.60;;;5.72;;
20639;SDS011;10479;53.524;9.846;2023-05-07T10:27:59;10.43;;;5.50;;
20639;SDS011;10479;53.524;9.846;2023-05-07T10:30:36;9.82;;;5.95;;
20639;SDS011;10479;53.524;9.846;2023-05-07T10:33:23;10.20;;;6.65;;
20639;SDS011;10479;53.524;9.846;2023-05-07T10:35:49;10.50;;;6.90;;
20639;SDS011;10479;53.524;9.846;2023-05-07T10:38:15;14.35;;;7.75;;
20639;SDS011;10479;53.524;9.846;2023-05-07T10:40:40;12.13;;;6.97;;
20639;SDS011;10479;53.524;9.846;2023-05-07T10:43:06;10.93;;;6.75;;
20639;SDS011;10479;53.524;9.846;2023-05-07T10:45:32;10.90;;;6.43;;
20639;SDS011;10479;53.524;9.846;2023-05-07T10:50:39;9.30;;;6.07;;
20639;SDS011;10479;53.524;9.846;2023-05-07T10:55:47;13.23;;;6.45;;
20639;SDS011;10479;53.524;9.846;2023-05-07T11:00:55;11.07;;;5.53;;
20639;SDS011;10479;53.524;9.846;2023-05-07T11:03:21;10.43;;;6.20;;
20639;SDS011;10479;53.524;9.846;2023-05-07T11:05:47;10.20;;;6.00;;
20639;SDS011;10479;53.524;9.846;2023-05-07T11:08:14;11.00;;;6.38;;
20639;SDS011;10479;53.524;9.846;2023-05-07T11:13:18;11.60;;;6.60;;
20639;SDS011;10479;53.524;9.846;2023-05-07T11:16:04;9.80;;;6.30;;
20639;SDS011;10479;53.524;9.846;2023-05-07T11:18:45;10.13;;;5.47;;
20639;SDS011;10479;53.524;9.846;2023-05-07T11:21:13;9.43;;;5.32;;
20639;SDS011;10479;53.524;9.846;2023-05-07T11:26:08;9.48;;;5.75;;
20639;SDS011;10479;53.524;9.846;2023-05-07T11:28:39;9.30;;;6.10;;
20639;SDS011;10479;53.524;9.846;2023-05-07T11:31:07;9.13;;;5.65;;
20639;SDS011;10479;53.524;9.846;2023-05-07T11:33:33;9.63;;;6.03;;
20639;SDS011;10479;53.524;9.846;2023-05-07T11:36:01;11.48;;;6.22;;
20639;SDS011;10479;53.524;9.846;2023-05-07T11:38:28;7.93;;;5.43;;
20639;SDS011;10479;53.524;9.846;2023-05-07T11:40:55;8.95;;;5.70;;
20639;SDS011;10479;53.524;9.846;2023-05-07T11:43:22;9.85;;;5.82;;
20639;SDS011;10479;53.524;9.846;2023-05-07T11:45:47;13.00;;;5.53;;
20639;SDS011;10479;53.524;9.846;2023-05-07T11:48:14;10.23;;;6.28;;
20639;SDS011;10479;53.524;9.846;2023-05-07T11:50:50;7.57;;;5.05;;
20639;SDS011;10479;53.524;9.846;2023-05-07T11:53:16;9.57;;;5.03;;
20639;SDS011;10479;53.524;9.846;2023-05-07T11:55:42;7.40;;;4.95;;
20639;SDS011;10479;53.524;9.846;2023-05-07T11:58:10;8.00;;;4.93;;
20639;SDS011;10479;53.524;9.846;2023-05-07T12:00:37;8.63;;;4.63;;
20639;SDS011;10479;53.524;9.846;2023-05-07T12:03:03;7.82;;;4.90;;
20639;SDS011;10479;53.524;9.846;2023-05-07T12:05:29;10.88;;;4.93;;
20639;SDS011;10479;53.524;9.846;2023-05-07T12:07:57;9.35;;;5.35;;
20639;SDS011;10479;53.524;9.846;2023-05-07T12:10:23;8.48;;;4.70;;
20639;SDS011;10479;53.524;9.846;2023-05-07T12:12:50;8.35;;;4.97;;
20639;SDS011;10479;53.524;9.846;2023-05-07T12:15:15;10.10;;;5.15;;
20639;SDS011;10479;53.524;9.846;2023-05-07T12:17:41;8.98;;;5.18;;
20639;SDS011;10479;53.524;9.846;2023-05-07T12:20:07;9.95;;;5.25;;
20639;SDS011;10479;53.524;9.846;2023-05-07T12:22:33;9.20;;;4.93;;
20639;SDS011;10479;53.524;9.846;2023-05-07T12:24:58;6.78;;;4.53;;
20639;SDS011;10479;53.524;9.846;2023-05-07T12:27:25;6.88;;;4.43;;
20639;SDS011;10479;53.524;9.846;2023-05-07T12:29:51;7.57;;;4.57;;
20639;SDS011;10479;53.524;9.846;2023-05-07T12:32:17;7.70;;;5.13;;
20639;SDS011;10479;53.524;9.846;2023-05-07T12:34:43;7.68;;;3.92;;
20639;SDS011;10479;53.524;9.846;2023-05-07T12:37:10;7.90;;;4.50;;
20639;SDS011;10479;53.524;9.846;2023-05-07T12:39:35;6.10;;;4.20;;
20639;SDS011;10479;53.524;9.846;2023-05-07T12:42:01;6.47;;;4.32;;
20639;SDS011;10479;53.524;9.846;2023-05-07T12:44:30;9.48;;;4.50;;
20639;SDS011;10479;53.524;9.846;2023-05-07T12:46:58;7.18;;;4.10;;
20639;SDS011;10479;53.524;9.846;2023-05-07T12:49:25;6.25;;;4.10;;
20639;SDS011;10479;53.524;9.846;2023-05-07T12:51:50;9.70;;;4.82;;
20639;SDS011;10479;53.524;9.846;2023-05-07T12:57:27;7.47;;;3.80;;
20639;SDS011;10479;53.524;9.846;2023-05-07T12:59:46;6.03;;;3.50;;
20639;SDS011;10479;53.524;9.846;2023-05-07T13:02:11;5.63;;;3.75;;
20639;SDS011;10479;53.524;9.846;2023-05-07T13:04:37;6.82;;;3.35;;
20639;SDS011;10479;53.524;9.846;2023-05-07T13:07:02;6.90;;;3.80;;
20639;SDS011;10479;53.524;9.846;2023-05-07T13:09:28;7.20;;;3.70;;
20639;SDS011;10479;53.524;9.846;2023-05-07T13:11:57;6.75;;;3.80;;
20639;SDS011;10479;53.524;9.846;2023-05-07T13:14:26;7.43;;;3.72;;
20639;SDS011;10479;53.524;9.846;2023-05-07T13:16:52;9.65;;;3.35;;
20639;SDS011;10479;53.524;9.846;2023-05-07T13:19:18;8.95;;;3.63;;
20639;SDS011;10479;53.524;9.846;2023-05-07T13:21:43;5.20;;;3.60;;
20639;SDS011;10479;53.524;9.846;2023-05-07T13:24:09;5.93;;;3.20;;
20639;SDS011;10479;53.524;9.846;2023-05-07T13:26:34;7.68;;;3.10;;
20639;SDS011;10479;53.524;9.846;2023-05-07T13:29:00;4.82;;;3.00;;
20639;SDS011;10479;53.524;9.846;2023-05-07T13:31:25;5.85;;;3.20;;
20639;SDS011;10479;53.524;9.846;2023-05-07T13:33:50;5.65;;;3.22;;
20639;SDS011;10479;53.524;9.846;2023-05-07T13:36:17;7.15;;;3.00;;
20639;SDS011;10479;53.524;9.846;2023-05-07T13:38:43;6.00;;;2.97;;
20639;SDS011;10479;53.524;9.846;2023-05-07T13:41:08;4.93;;;2.78;;
20639;SDS011;10479;53.524;9.846;2023-05-07T13:43:34;4.85;;;3.00;;
20639;SDS011;10479;53.524;9.846;2023-05-07T13:45:59;6.63;;;2.80;;
20639;SDS011;10479;53.524;9.846;2023-05-07T13:48:25;5.25;;;2.70;;
20639;SDS011;10479;53.524;9.846;2023-05-07T13:50:51;4.85;;;2.60;;
20639;SDS011;10479;53.524;9.846;2023-05-07T13:53:16;4.78;;;2.50;;
20639;SDS011;10479;53.524;9.846;2023-05-07T13:55:43;6.57;;;2.63;;
20639;SDS011;10479;53.524;9.846;2023-05-07T13:58:09;4.93;;;2.70;;
20639;SDS011;10479;53.524;9.846;2023-05-07T14:00:34;4.68;;;2.90;;
20639;SDS011;10479;53.524;9.846;2023-05-07T14:03:00;3.67;;;2.20;;
20639;SDS011;10479;53.524;9.846;2023-05-07T14:05:25;4.55;;;2.67;;
20639;SDS011;10479;53.524;9.846;2023-05-07T14:07:53;4.25;;;2.63;;
20639;SDS011;10479;53.524;9.846;2023-05-07T14:10:19;4.65;;;2.30;;
20639;SDS011;10479;53.524;9.846;2023-05-07T14:12:46;5.20;;;3.00;;
20639;SDS011;10479;53.524;9.846;2023-05-07T14:15:11;4.18;;;2.40;;
20639;SDS011;10479;53.524;9.846;2023-05-07T14:17:37;4.68;;;2.75;;
20639;SDS011;10479;53.524;9.846;2023-05-07T14:20:02;4.53;;;2.63;;
20639;SDS011;10479;53.524;9.846;2023-05-07T14:22:28;4.20;;;2.30;;
20639;SDS011;10479;53.524;9.846;2023-05-07T14:24:54;3.72;;;2.13;;
20639;SDS011;10479;53.524;9.846;2023-05-07T14:27:19;5.13;;;2.40;;
20639;SDS011;10479;53.524;9.846;2023-05-07T14:29:44;6.25;;;2.53;;
20639;SDS011;10479;53.524;9.846;2023-05-07T14:32:10;4.47;;;2.30;;
20639;SDS011;10479;53.524;9.846;2023-05-07T14:34:36;3.90;;;2.35;;
20639;SDS011;10479;53.524;9.846;2023-05-07T14:37:01;4.05;;;2.40;;
20639;SDS011;10479;53.524;9.846;2023-05-07T14:39:27;6.28;;;2.67;;
20639;SDS011;10479;53.524;9.846;2023-05-07T14:41:52;3.78;;;2.22;;
20639;SDS011;10479;53.524;9.846;2023-05-07T14:44:19;5.45;;;2.50;;
20639;SDS011;10479;53.524;9.846;2023-05-07T14:46:45;5.65;;;2.53;;